sensor_id;sensor_type;location;lat;lon;timestamp;pressure;altitude;pressure_sealevel;temperature;humidity
37066;BME280;22981;43.080;25.550;2023-12-20T00:00:37;99927.97;;;0.84;73.13
37066;BME280;22981;43.080;25.550;2023-12-20T00:03:04;99923.19;;;0.83;73.08
37066;BME280;22981;43.080;25.550;2023-12-20T00:05:32;99924.50;;;0.83;73.07
37066;BME280;22981;43.080;25.550;2023-12-20T00:08:00;99920.94;;;0.74;73.06
37066;BME280;22981;43.080;25.550;2023-12-20T00:10:28;99920.38;;;0.57;73.18
37066;BME280;22981;43.080;25.550;2023-12-20T00:12:56;99922.35;;;0.45;73.58
37066;BME280;22981;43.080;25.550;2023-12-20T00:15:23;99909.61;;;0.41;73.80
37066;BME280;22981;43.080;25.550;2023-12-20T00:17:51;99914.60;;;0.44;73.86
37066;BME280;22981;43.080;25.550;2023-12-20T00:20:18;99902.16;;;0.50;73.95
37066;BME280;22981;43.080;25.550;2023-12-20T00:22:46;99902.16;;;0.50;73.95
37066;BME280;22981;43.080;25.550;2023-12-20T00:25:14;99898.60;;;0.55;73.91
37066;BME280;22981;43.080;25.550;2023-12-20T00:27:41;99900.80;;;0.60;73.58
37066;BME280;22981;43.080;25.550;2023-12-20T00:30:10;99897.34;;;0.59;73.45
37066;BME280;22981;43.080;25.550;2023-12-20T00:32:37;99894.53;;;0.57;73.68
37066;BME280;22981;43.080;25.550;2023-12-20T00:35:05;99894.53;;;0.57;73.68
37066;BME280;22981;43.080;25.550;2023-12-20T00:37:33;99898.32;;;0.58;73.37
37066;BME280;22981;43.080;25.550;2023-12-20T00:40:00;99897.05;;;0.48;73.46
37066;BME280;22981;43.080;25.550;2023-12-20T00:42:29;99892.27;;;0.48;73.64
37066;BME280;22981;43.080;25.550;2023-12-20T00:44:56;99890.64;;;0.51;73.55
37066;BME280;22981;43.080;25.550;2023-12-20T00:47:24;99885.38;;;0.51;73.50
37066;BME280;22981;43.080;25.550;2023-12-20T00:49:51;99881.52;;;0.45;73.49
37066;BME280;22981;43.080;25.550;2023-12-20T00:52:19;99879.55;;;0.34;73.55
37066;BME280;22981;43.080;25.550;2023-12-20T00:54:48;99886.81;;;0.22;74.14
37066;BME280;22981;43.080;25.550;2023-12-20T00:57:16;99886.81;;;0.22;74.14
37066;BME280;22981;43.080;25.550;2023-12-20T00:59:43;99871.84;;;0.22;73.95
37066;BME280;22981;43.080;25.550;2023-12-20T01:02:11;99872.45;;;0.30;73.84
37066;BME280;22981;43.080;25.550;2023-12-20T01:04:38;99859.67;;;0.35;73.90
37066;BME280;22981;43.080;25.550;2023-12-20T01:07:07;99859.67;;;0.35;73.90
37066;BME280;22981;43.080;25.550;2023-12-20T01:09:35;99850.09;;;0.34;73.60
37066;BME280;22981;43.080;25.550;2023-12-20T01:12:02;99855.94;;;0.28;73.54
37066;BME280;22981;43.080;25.550;2023-12-20T01:14:30;99853.41;;;0.22;73.58
37066;BME280;22981;43.080;25.550;2023-12-20T01:16:57;99850.07;;;0.20;73.71
37066;BME280;22981;43.080;25.550;2023-12-20T01:19:25;99850.77;;;0.22;73.72
37066;BME280;22981;43.080;25.550;2023-12-20T01:21:54;99842.76;;;0.14;73.65
37066;BME280;22981;43.080;25.550;2023-12-20T01:24:22;99842.76;;;0.14;73.65
37066;BME280;22981;43.080;25.550;2023-12-20T01:26:49;99831.19;;;0.11;73.97
37066;BME280;22981;43.080;25.550;2023-12-20T01:29:17;99831.19;;;0.11;73.97
37066;BME280;22981;43.080;25.550;2023-12-20T01:31:45;99827.19;;;0.07;73.94
37066;BME280;22981;43.080;25.550;2023-12-20T01:34:12;99833.59;;;-0.05;74.09
37066;BME280;22981;43.080;25.550;2023-12-20T01:36:40;99830.71;;;-0.12;74.30
37066;BME280;22981;43.080;25.550;2023-12-20T01:39:07;99829.39;;;-0.12;74.46
37066;BME280;22981;43.080;25.550;2023-12-20T01:41:35;99820.09;;;-0.06;74.45
37066;BME280;22981;43.080;25.550;2023-12-20T01:44:03;99809.67;;;0.02;74.30
37066;BME280;22981;43.080;25.550;2023-12-20T01:46:30;99807.05;;;0.02;74.12
37066;BME280;22981;43.080;25.550;2023-12-20T01:48:58;99801.30;;;0.03;74.04
37066;BME280;22981;43.080;25.550;2023-12-20T01:51:26;99788.90;;;-0.01;73.78
37066;BME280;22981;43.080;25.550;2023-12-20T01:53:56;99783.69;;;0.03;73.96
37066;BME280;22981;43.080;25.550;2023-12-20T01:56:25;99780.23;;;0.03;73.93
37066;BME280;22981;43.080;25.550;2023-12-20T01:58:54;99779.35;;;-0.02;73.90
37066;BME280;22981;43.080;25.550;2023-12-20T02:01:22;99777.48;;;-0.06;73.97
37066;BME280;22981;43.080;25.550;2023-12-20T02:03:50;99774.80;;;-0.10;73.96
37066;BME280;22981;43.080;25.550;2023-12-20T02:06:19;99758.89;;;-0.18;74.08
37066;BME280;22981;43.080;25.550;2023-12-20T02:08:49;99750.17;;;-0.18;74.27
37066;BME280;22981;43.080;25.550;2023-12-20T02:11:16;99750.17;;;-0.18;74.27
37066;BME280;22981;43.080;25.550;2023-12-20T02:13:44;99739.47;;;-0.21;74.19
37066;BME280;22981;43.080;25.550;2023-12-20T02:16:12;99741.52;;;-0.15;74.20
37066;BME280;22981;43.080;25.550;2023-12-20T02:18:39;99744.42;;;-0.18;74.23
37066;BME280;22981;43.080;25.550;2023-12-20T02:21:10;99744.42;;;-0.18;74.23
37066;BME280;22981;43.080;25.550;2023-12-20T02:23:37;99738.71;;;-0.27;74.13
37066;BME280;22981;43.080;25.550;2023-12-20T02:26:05;99736.36;;;-0.30;74.32
37066;BME280;22981;43.080;25.550;2023-12-20T02:28:34;99725.22;;;-0.28;74.32
37066;BME280;22981;43.080;25.550;2023-12-20T02:31:02;99722.81;;;-0.35;74.25
37066;BME280;22981;43.080;25.550;2023-12-20T02:33:29;99722.81;;;-0.35;74.25
37066;BME280;22981;43.080;25.550;2023-12-20T02:35:57;99723.00;;;-0.46;74.33
37066;BME280;22981;43.080;25.550;2023-12-20T02:38:24;99726.00;;;-0.55;74.54
37066;BME280;22981;43.080;25.550;2023-12-20T02:40:52;99717.16;;;-0.64;74.83
37066;BME280;22981;43.080;25.550;2023-12-20T02:43:19;99711.41;;;-0.63;74.98
37066;BME280;22981;43.080;25.550;2023-12-20T02:45:47;99712.91;;;-0.61;74.99
37066;BME280;22981;43.080;25.550;2023-12-20T02:48:14;99702.39;;;-0.61;75.02
37066;BME280;22981;43.080;25.550;2023-12-20T02:50:42;99697.34;;;-0.58;75.02
37066;BME280;22981;43.080;25.550;2023-12-20T02:53:09;99695.45;;;-0.52;74.91
37066;BME280;22981;43.080;25.550;2023-12-20T02:55:37;99693.24;;;-0.47;74.74
37066;BME280;22981;43.080;25.550;2023-12-20T02:58:05;99691.56;;;-0.48;74.60
37066;BME280;22981;43.080;25.550;2023-12-20T03:00:32;99682.17;;;-0.51;74.57
37066;BME280;22981;43.080;25.550;2023-12-20T03:03:00;99685.81;;;-0.47;74.45
37066;BME280;22981;43.080;25.550;2023-12-20T03:05:28;99684.44;;;-0.52;74.34
37066;BME280;22981;43.080;25.550;2023-12-20T03:07:55;99683.92;;;-0.55;74.31
37066;BME280;22981;43.080;25.550;2023-12-20T03:10:23;99687.87;;;-0.55;74.31
37066;BME280;22981;43.080;25.550;2023-12-20T03:12:50;99674.35;;;-0.56;74.34
37066;BME280;22981;43.080;25.550;2023-12-20T03:15:18;99670.77;;;-0.55;74.31
37066;BME280;22981;43.080;25.550;2023-12-20T03:17:46;99669.09;;;-0.56;74.20
37066;BME280;22981;43.080;25.550;2023-12-20T03:20:13;99669.09;;;-0.56;74.20
37066;BME280;22981;43.080;25.550;2023-12-20T03:22:41;99663.00;;;-0.57;74.17
37066;BME280;22981;43.080;25.550;2023-12-20T03:25:08;99658.39;;;-0.59;73.85
37066;BME280;22981;43.080;25.550;2023-12-20T03:27:37;99657.75;;;-0.57;74.16
37066;BME280;22981;43.080;25.550;2023-12-20T03:30:08;99661.91;;;-0.54;74.17
37066;BME280;22981;43.080;25.550;2023-12-20T03:32:36;99654.17;;;-0.56;74.10
37066;BME280;22981;43.080;25.550;2023-12-20T03:35:04;99656.74;;;-0.60;74.01
37066;BME280;22981;43.080;25.550;2023-12-20T03:37:32;99652.38;;;-0.65;74.11
37066;BME280;22981;43.080;25.550;2023-12-20T03:39:59;99643.27;;;-0.70;74.17
37066;BME280;22981;43.080;25.550;2023-12-20T03:42:27;99642.11;;;-0.72;74.29
37066;BME280;22981;43.080;25.550;2023-12-20T03:44:54;99643.36;;;-0.76;74.32
37066;BME280;22981;43.080;25.550;2023-12-20T03:47:22;99641.84;;;-0.79;74.43
37066;BME280;22981;43.080;25.550;2023-12-20T03:49:49;99638.10;;;-0.76;74.49
37066;BME280;22981;43.080;25.550;2023-12-20T03:52:17;99637.95;;;-0.74;74.39
37066;BME280;22981;43.080;25.550;2023-12-20T03:54:45;99629.23;;;-0.75;74.35
37066;BME280;22981;43.080;25.550;2023-12-20T03:57:12;99625.45;;;-0.77;74.18
37066;BME280;22981;43.080;25.550;2023-12-20T03:59:40;99625.94;;;-0.87;74.19
37066;BME280;22981;43.080;25.550;2023-12-20T04:02:07;99624.45;;;-0.99;74.39
37066;BME280;22981;43.080;25.550;2023-12-20T04:04:35;99617.14;;;-1.05;74.68
37066;BME280;22981;43.080;25.550;2023-12-20T04:07:02;99612.86;;;-1.06;74.85
37066;BME280;22981;43.080;25.550;2023-12-20T04:09:30;99608.68;;;-0.99;74.86
37066;BME280;22981;43.080;25.550;2023-12-20T04:11:58;99609.93;;;-0.93;74.72
37066;BME280;22981;43.080;25.550;2023-12-20T04:14:25;99608.80;;;-0.91;74.70
37066;BME280;22981;43.080;25.550;2023-12-20T04:16:53;99607.42;;;-0.85;74.62
37066;BME280;22981;43.080;25.550;2023-12-20T04:19:20;99605.13;;;-0.84;74.50
37066;BME280;22981;43.080;25.550;2023-12-20T04:21:48;99604.48;;;-0.82;74.40
37066;BME280;22981;43.080;25.550;2023-12-20T04:24:15;99597.73;;;-0.85;74.31
37066;BME280;22981;43.080;25.550;2023-12-20T04:26:43;99596.73;;;-0.97;74.25
37066;BME280;22981;43.080;25.550;2023-12-20T04:29:11;99592.61;;;-1.10;74.43
37066;BME280;22981;43.080;25.550;2023-12-20T04:31:38;99585.77;;;-1.16;74.79
37066;BME280;22981;43.080;25.550;2023-12-20T04:34:06;99581.06;;;-1.13;74.87
37066;BME280;22981;43.080;25.550;2023-12-20T04:36:34;99582.44;;;-1.09;74.75
37066;BME280;22981;43.080;25.550;2023-12-20T04:39:02;99584.52;;;-1.03;74.67
37066;BME280;22981;43.080;25.550;2023-12-20T04:41:29;99583.14;;;-1.07;74.50
37066;BME280;22981;43.080;25.550;2023-12-20T04:43:57;99577.00;;;-1.11;74.56
37066;BME280;22981;43.080;25.550;2023-12-20T04:46:24;99577.00;;;-1.11;74.67
37066;BME280;22981;43.080;25.550;2023-12-20T04:48:52;99578.31;;;-1.11;74.59
37066;BME280;22981;43.080;25.550;2023-12-20T04:51:19;99571.05;;;-1.13;74.64
37066;BME280;22981;43.080;25.550;2023-12-20T04:53:47;99569.30;;;-1.09;74.61
37066;BME280;22981;43.080;25.550;2023-12-20T04:56:14;99573.94;;;-1.07;74.53
37066;BME280;22981;43.080;25.550;2023-12-20T04:58:43;99575.04;;;-1.09;74.50
37066;BME280;22981;43.080;25.550;2023-12-20T05:01:10;99572.08;;;-1.10;74.58
37066;BME280;22981;43.080;25.550;2023-12-20T05:03:38;99571.74;;;-1.11;74.59
37066;BME280;22981;43.080;25.550;2023-12-20T05:06:06;99567.49;;;-1.08;74.57
37066;BME280;22981;43.080;25.550;2023-12-20T05:08:33;99565.63;;;-1.12;74.54
37066;BME280;22981;43.080;25.550;2023-12-20T05:11:01;99562.48;;;-1.15;74.67
37066;BME280;22981;43.080;25.550;2023-12-20T05:13:29;99557.56;;;-1.14;74.76
37066;BME280;22981;43.080;25.550;2023-12-20T05:15:56;99550.84;;;-1.13;74.67
37066;BME280;22981;43.080;25.550;2023-12-20T05:18:24;99560.20;;;-1.14;74.53
37066;BME280;22981;43.080;25.550;2023-12-20T05:20:52;99557.60;;;-1.24;74.57
37066;BME280;22981;43.080;25.550;2023-12-20T05:23:19;99553.88;;;-1.31;74.83
37066;BME280;22981;43.080;25.550;2023-12-20T05:25:47;99556.56;;;-1.27;74.89
37066;BME280;22981;43.080;25.550;2023-12-20T05:28:15;99554.27;;;-1.26;74.80
37066;BME280;22981;43.080;25.550;2023-12-20T05:30:43;99550.55;;;-1.23;74.74
37066;BME280;22981;43.080;25.550;2023-12-20T05:33:13;99553.02;;;-1.22;74.75
37066;BME280;22981;43.080;25.550;2023-12-20T05:35:40;99545.69;;;-1.18;74.75
37066;BME280;22981;43.080;25.550;2023-12-20T05:38:07;99542.78;;;-1.15;74.67
37066;BME280;22981;43.080;25.550;2023-12-20T05:40:35;99537.71;;;-1.13;74.64
37066;BME280;22981;43.080;25.550;2023-12-20T05:43:03;99540.98;;;-1.15;74.56
37066;BME280;22981;43.080;25.550;2023-12-20T05:45:31;99535.33;;;-1.20;74.61
37066;BME280;22981;43.080;25.550;2023-12-20T05:47:58;99538.78;;;-1.19;74.67
37066;BME280;22981;43.080;25.550;2023-12-20T05:50:26;99536.22;;;-1.15;74.75
37066;BME280;22981;43.080;25.550;2023-12-20T05:52:53;99532.18;;;-1.10;74.71
37066;BME280;22981;43.080;25.550;2023-12-20T05:55:21;99535.84;;;-1.07;74.60
37066;BME280;22981;43.080;25.550;2023-12-20T05:57:49;99540.89;;;-1.09;74.59
37066;BME280;22981;43.080;25.550;2023-12-20T06:00:17;99538.75;;;-1.10;74.68
37066;BME280;22981;43.080;25.550;2023-12-20T06:02:44;99532.34;;;-1.11;74.78
37066;BME280;22981;43.080;25.550;2023-12-20T06:05:12;99528.39;;;-1.11;74.80
37066;BME280;22981;43.080;25.550;2023-12-20T06:07:40;99525.77;;;-1.11;74.89
37066;BME280;22981;43.080;25.550;2023-12-20T06:10:07;99522.83;;;-1.08;75.00
37066;BME280;22981;43.080;25.550;2023-12-20T06:12:35;99522.61;;;-1.01;74.97
37066;BME280;22981;43.080;25.550;2023-12-20T06:15:03;99519.59;;;-0.92;74.87
37066;BME280;22981;43.080;25.550;2023-12-20T06:17:32;99522.00;;;-0.85;74.72
37066;BME280;22981;43.080;25.550;2023-12-20T06:20:01;99528.19;;;-0.77;74.70
37066;BME280;22981;43.080;25.550;2023-12-20T06:22:31;99517.51;;;-0.61;74.60
37066;BME280;22981;43.080;25.550;2023-12-20T06:24:58;99515.52;;;-0.49;74.43
37066;BME280;22981;43.080;25.550;2023-12-20T06:27:26;99521.48;;;-0.43;74.33
37066;BME280;22981;43.080;25.550;2023-12-20T06:29:53;99520.70;;;-0.40;74.29
37066;BME280;22981;43.080;25.550;2023-12-20T06:32:21;99518.45;;;-0.35;74.30
37066;BME280;22981;43.080;25.550;2023-12-20T06:34:50;99517.19;;;-0.31;74.39
37066;BME280;22981;43.080;25.550;2023-12-20T06:37:17;99514.97;;;-0.21;74.40
37066;BME280;22981;43.080;25.550;2023-12-20T06:39:45;99516.73;;;-0.12;74.31
37066;BME280;22981;43.080;25.550;2023-12-20T06:42:13;99513.33;;;-0.05;74.37
37066;BME280;22981;43.080;25.550;2023-12-20T06:44:40;99506.60;;;0.15;74.32
37066;BME280;22981;43.080;25.550;2023-12-20T06:47:08;99507.63;;;0.40;74.17
37066;BME280;22981;43.080;25.550;2023-12-20T06:49:36;99502.54;;;0.64;73.92
37066;BME280;22981;43.080;25.550;2023-12-20T06:52:03;99506.54;;;0.77;73.69
37066;BME280;22981;43.080;25.550;2023-12-20T06:54:31;99499.81;;;0.78;73.66
37066;BME280;22981;43.080;25.550;2023-12-20T06:57:00;99499.44;;;0.69;73.73
37066;BME280;22981;43.080;25.550;2023-12-20T06:59:29;99492.44;;;0.60;74.48
37066;BME280;22981;43.080;25.550;2023-12-20T07:01:57;99488.66;;;0.58;74.25
37066;BME280;22981;43.080;25.550;2023-12-20T07:04:24;99488.66;;;0.58;74.25
37066;BME280;22981;43.080;25.550;2023-12-20T07:06:52;99492.27;;;0.57;74.48
37066;BME280;22981;43.080;25.550;2023-12-20T07:09:21;99487.50;;;0.57;74.68
37066;BME280;22981;43.080;25.550;2023-12-20T07:11:49;99479.27;;;0.60;74.83
37066;BME280;22981;43.080;25.550;2023-12-20T07:14:16;99472.92;;;0.70;74.83
37066;BME280;22981;43.080;25.550;2023-12-20T07:16:44;99472.78;;;0.76;74.71
37066;BME280;22981;43.080;25.550;2023-12-20T07:19:11;99471.48;;;0.80;74.77
37066;BME280;22981;43.080;25.550;2023-12-20T07:21:39;99468.23;;;0.86;74.84
37066;BME280;22981;43.080;25.550;2023-12-20T07:24:07;99465.45;;;0.92;74.83
37066;BME280;22981;43.080;25.550;2023-12-20T07:26:35;99460.52;;;0.93;74.84
37066;BME280;22981;43.080;25.550;2023-12-20T07:29:04;99466.83;;;1.04;75.02
37066;BME280;22981;43.080;25.550;2023-12-20T07:31:32;99463.07;;;1.15;75.06
37066;BME280;22981;43.080;25.550;2023-12-20T07:33:59;99453.38;;;1.23;75.00
37066;BME280;22981;43.080;25.550;2023-12-20T07:36:27;99457.36;;;1.32;74.94
37066;BME280;22981;43.080;25.550;2023-12-20T07:38:54;99455.73;;;1.35;74.86
37066;BME280;22981;43.080;25.550;2023-12-20T07:41:22;99458.05;;;1.34;74.98
37066;BME280;22981;43.080;25.550;2023-12-20T07:43:50;99459.69;;;1.35;75.10
37066;BME280;22981;43.080;25.550;2023-12-20T07:46:17;99456.75;;;1.42;75.26
37066;BME280;22981;43.080;25.550;2023-12-20T07:48:46;99459.75;;;1.55;75.23
37066;BME280;22981;43.080;25.550;2023-12-20T07:51:14;99456.97;;;1.69;75.20
37066;BME280;22981;43.080;25.550;2023-12-20T07:53:42;99441.97;;;1.82;75.18
37066;BME280;22981;43.080;25.550;2023-12-20T07:56:19;99435.52;;;1.96;75.22
37066;BME280;22981;43.080;25.550;2023-12-20T07:58:47;99430.42;;;2.07;75.15
37066;BME280;22981;43.080;25.550;2023-12-20T08:01:16;99430.25;;;2.13;75.17
37066;BME280;22981;43.080;25.550;2023-12-20T08:03:45;99423.64;;;2.13;75.28
37066;BME280;22981;43.080;25.550;2023-12-20T08:06:13;99419.50;;;2.18;75.40
37066;BME280;22981;43.080;25.550;2023-12-20T08:08:40;99415.53;;;2.31;75.43
37066;BME280;22981;43.080;25.550;2023-12-20T08:11:08;99414.69;;;2.46;75.39
37066;BME280;22981;43.080;25.550;2023-12-20T08:13:35;99412.13;;;2.73;75.32
37066;BME280;22981;43.080;25.550;2023-12-20T08:16:03;99404.83;;;3.19;75.06
37066;BME280;22981;43.080;25.550;2023-12-20T08:18:31;99397.27;;;3.66;74.45
37066;BME280;22981;43.080;25.550;2023-12-20T08:20:58;99392.51;;;4.03;73.92
37066;BME280;22981;43.080;25.550;2023-12-20T08:23:26;99385.16;;;4.43;73.23
37066;BME280;22981;43.080;25.550;2023-12-20T08:25:54;99391.84;;;4.68;72.73
37066;BME280;22981;43.080;25.550;2023-12-20T08:28:21;99385.42;;;4.77;72.57
37066;BME280;22981;43.080;25.550;2023-12-20T08:30:49;99386.13;;;4.75;72.42
37066;BME280;22981;43.080;25.550;2023-12-20T08:33:18;99383.93;;;4.64;72.65
37066;BME280;22981;43.080;25.550;2023-12-20T08:35:46;99381.77;;;4.49;72.98
37066;BME280;22981;43.080;25.550;2023-12-20T08:38:13;99377.71;;;4.42;73.22
37066;BME280;22981;43.080;25.550;2023-12-20T08:40:41;99357.32;;;4.72;73.36
37066;BME280;22981;43.080;25.550;2023-12-20T08:43:09;99353.86;;;4.97;72.94
37066;BME280;22981;43.080;25.550;2023-12-20T08:45:37;99355.28;;;5.15;72.56
37066;BME280;22981;43.080;25.550;2023-12-20T08:48:06;99344.21;;;5.11;72.48
37066;BME280;22981;43.080;25.550;2023-12-20T08:50:33;99337.58;;;5.11;72.62
37066;BME280;22981;43.080;25.550;2023-12-20T08:53:01;99334.50;;;5.18;72.66
37066;BME280;22981;43.080;25.550;2023-12-20T08:55:29;99324.96;;;5.45;72.62
37066;BME280;22981;43.080;25.550;2023-12-20T08:57:57;99321.27;;;6.00;72.02
37066;BME280;22981;43.080;25.550;2023-12-20T09:00:26;99319.55;;;6.38;71.19
37066;BME280;22981;43.080;25.550;2023-12-20T09:02:55;99308.79;;;6.76;70.05
37066;BME280;22981;43.080;25.550;2023-12-20T09:05:22;99304.48;;;7.06;69.20
37066;BME280;22981;43.080;25.550;2023-12-20T09:07:50;99294.42;;;7.39;68.49
37066;BME280;22981;43.080;25.550;2023-12-20T09:10:17;99284.92;;;7.80;67.86
37066;BME280;22981;43.080;25.550;2023-12-20T09:12:47;99274.27;;;8.36;66.61
37066;BME280;22981;43.080;25.550;2023-12-20T09:15:14;99277.91;;;8.84;65.26
37066;BME280;22981;43.080;25.550;2023-12-20T09:17:42;99271.90;;;9.11;64.25
37066;BME280;22981;43.080;25.550;2023-12-20T09:20:10;99255.49;;;9.23;63.68
37066;BME280;22981;43.080;25.550;2023-12-20T09:22:39;99254.22;;;9.41;63.37
37066;BME280;22981;43.080;25.550;2023-12-20T09:25:08;99240.69;;;9.52;62.77
37066;BME280;22981;43.080;25.550;2023-12-20T09:27:36;99236.09;;;9.59;61.81
37066;BME280;22981;43.080;25.550;2023-12-20T09:30:05;99221.11;;;9.67;61.73
37066;BME280;22981;43.080;25.550;2023-12-20T09:32:32;99215.97;;;9.91;61.01
37066;BME280;22981;43.080;25.550;2023-12-20T09:35:00;99213.24;;;10.16;60.67
37066;BME280;22981;43.080;25.550;2023-12-20T09:37:28;99208.95;;;10.33;59.79
37066;BME280;22981;43.080;25.550;2023-12-20T09:39:55;99199.72;;;10.47;59.60
37066;BME280;22981;43.080;25.550;2023-12-20T09:42:38;99199.47;;;10.67;59.33
37066;BME280;22981;43.080;25.550;2023-12-20T09:45:08;99199.70;;;10.87;58.66
37066;BME280;22981;43.080;25.550;2023-12-20T09:47:36;99192.63;;;10.92;58.17
37066;BME280;22981;43.080;25.550;2023-12-20T09:50:04;99189.22;;;11.27;57.81
37066;BME280;22981;43.080;25.550;2023-12-20T09:52:33;99181.42;;;11.72;57.13
37066;BME280;22981;43.080;25.550;2023-12-20T09:55:02;99173.60;;;12.06;56.43
37066;BME280;22981;43.080;25.550;2023-12-20T09:57:33;99167.78;;;12.23;55.53
37066;BME280;22981;43.080;25.550;2023-12-20T10:00:01;99167.17;;;12.33;54.87
37066;BME280;22981;43.080;25.550;2023-12-20T10:02:31;99159.83;;;12.28;54.03
37066;BME280;22981;43.080;25.550;2023-12-20T10:04:59;99151.16;;;12.24;53.98
37066;BME280;22981;43.080;25.550;2023-12-20T10:07:27;99146.23;;;12.33;53.72
37066;BME280;22981;43.080;25.550;2023-12-20T10:09:56;99146.44;;;12.57;53.53
37066;BME280;22981;43.080;25.550;2023-12-20T10:12:24;99134.02;;;12.68;53.08
37066;BME280;22981;43.080;25.550;2023-12-20T10:14:51;99126.13;;;12.78;52.52
37066;BME280;22981;43.080;25.550;2023-12-20T10:17:19;99112.19;;;12.95;52.34
37066;BME280;22981;43.080;25.550;2023-12-20T10:19:48;99109.78;;;13.13;51.77
37066;BME280;22981;43.080;25.550;2023-12-20T10:22:15;99100.05;;;13.24;51.30
37066;BME280;22981;43.080;25.550;2023-12-20T10:24:43;99097.55;;;13.37;51.10
37066;BME280;22981;43.080;25.550;2023-12-20T10:27:10;99100.70;;;13.50;50.64
37066;BME280;22981;43.080;25.550;2023-12-20T10:29:38;99095.23;;;13.65;50.34
37066;BME280;22981;43.080;25.550;2023-12-20T10:32:26;99081.48;;;13.83;50.04
37066;BME280;22981;43.080;25.550;2023-12-20T10:34:55;99077.11;;;13.99;50.11
37066;BME280;22981;43.080;25.550;2023-12-20T10:37:23;99071.73;;;14.48;49.36
37066;BME280;22981;43.080;25.550;2023-12-20T10:39:52;99074.49;;;14.83;48.52
37066;BME280;22981;43.080;25.550;2023-12-20T10:42:26;99060.52;;;14.88;48.23
37066;BME280;22981;43.080;25.550;2023-12-20T10:44:54;99055.70;;;14.90;48.37
37066;BME280;22981;43.080;25.550;2023-12-20T10:47:23;99048.22;;;15.02;47.90
37066;BME280;22981;43.080;25.550;2023-12-20T10:49:53;99037.44;;;15.02;47.61
37066;BME280;22981;43.080;25.550;2023-12-20T10:52:23;99028.51;;;14.97;47.49
37066;BME280;22981;43.080;25.550;2023-12-20T10:54:54;99027.94;;;14.92;47.37
37066;BME280;22981;43.080;25.550;2023-12-20T10:57:22;99019.88;;;14.97;47.37
37066;BME280;22981;43.080;25.550;2023-12-20T10:59:51;99018.77;;;14.91;47.23
37066;BME280;22981;43.080;25.550;2023-12-20T11:02:21;99019.28;;;14.88;47.15
37066;BME280;22981;43.080;25.550;2023-12-20T11:05:06;99012.60;;;14.95;47.20
37066;BME280;22981;43.080;25.550;2023-12-20T11:07:57;99015.11;;;15.10;46.94
37066;BME280;22981;43.080;25.550;2023-12-20T11:10:41;99005.52;;;15.26;46.75
37066;BME280;22981;43.080;25.550;2023-12-20T11:13:21;98999.92;;;15.38;46.61
37066;BME280;22981;43.080;25.550;2023-12-20T11:15:46;98996.85;;;15.24;46.77
37066;BME280;22981;43.080;25.550;2023-12-20T11:18:13;98992.86;;;15.30;46.73
37066;BME280;22981;43.080;25.550;2023-12-20T11:20:42;98984.28;;;15.45;46.27
37066;BME280;22981;43.080;25.550;2023-12-20T11:23:10;98984.38;;;15.63;46.12
37066;BME280;22981;43.080;25.550;2023-12-20T11:25:55;98974.94;;;15.63;45.86
37066;BME280;22981;43.080;25.550;2023-12-20T11:28:25;98974.60;;;15.47;46.10
37066;BME280;22981;43.080;25.550;2023-12-20T11:30:58;98969.08;;;15.24;46.39
37066;BME280;22981;43.080;25.550;2023-12-20T11:33:36;98970.31;;;15.01;46.56
37066;BME280;22981;43.080;25.550;2023-12-20T11:36:12;98972.74;;;14.63;46.96
37066;BME280;22981;43.080;25.550;2023-12-20T11:38:38;98975.13;;;14.27;47.34
37066;BME280;22981;43.080;25.550;2023-12-20T11:41:06;98968.19;;;14.07;47.57
37066;BME280;22981;43.080;25.550;2023-12-20T11:43:38;98966.81;;;14.04;47.57
37066;BME280;22981;43.080;25.550;2023-12-20T11:46:07;98964.50;;;14.15;47.39
37066;BME280;22981;43.080;25.550;2023-12-20T11:48:38;98956.97;;;14.17;47.64
37066;BME280;22981;43.080;25.550;2023-12-20T11:51:12;98947.31;;;14.19;47.76
37066;BME280;22981;43.080;25.550;2023-12-20T11:53:40;98951.39;;;14.24;47.66
37066;BME280;22981;43.080;25.550;2023-12-20T11:56:10;98945.62;;;14.13;47.72
37066;BME280;22981;43.080;25.550;2023-12-20T11:58:38;98940.96;;;14.00;48.00
37066;BME280;22981;43.080;25.550;2023-12-20T12:01:06;98939.62;;;14.00;48.30
37066;BME280;22981;43.080;25.550;2023-12-20T12:03:37;98933.30;;;13.90;48.43
37066;BME280;22981;43.080;25.550;2023-12-20T12:06:04;98936.67;;;13.75;48.73
37066;BME280;22981;43.080;25.550;2023-12-20T12:08:32;98925.23;;;13.63;48.94
37066;BME280;22981;43.080;25.550;2023-12-20T12:11:00;98918.69;;;13.53;49.36
37066;BME280;22981;43.080;25.550;2023-12-20T12:13:27;98919.13;;;13.45;49.79
37066;BME280;22981;43.080;25.550;2023-12-20T12:15:55;98921.50;;;13.42;49.97
37066;BME280;22981;43.080;25.550;2023-12-20T12:18:22;98916.78;;;13.30;50.16
37066;BME280;22981;43.080;25.550;2023-12-20T12:20:50;98911.89;;;13.24;50.35
37066;BME280;22981;43.080;25.550;2023-12-20T12:23:25;98907.05;;;13.23;50.73
37066;BME280;22981;43.080;25.550;2023-12-20T12:25:53;98899.14;;;13.39;51.05
37066;BME280;22981;43.080;25.550;2023-12-20T12:28:25;98895.60;;;13.58;51.03
37066;BME280;22981;43.080;25.550;2023-12-20T12:30:57;98888.25;;;13.75;51.03
37066;BME280;22981;43.080;25.550;2023-12-20T12:33:26;98882.03;;;14.04;50.98
37066;BME280;22981;43.080;25.550;2023-12-20T12:35:54;98877.59;;;14.52;50.51
37066;BME280;22981;43.080;25.550;2023-12-20T12:38:24;98871.09;;;14.95;49.92
37066;BME280;22981;43.080;25.550;2023-12-20T12:40:52;98865.27;;;15.21;49.74
37066;BME280;22981;43.080;25.550;2023-12-20T12:43:19;98860.20;;;15.45;49.59
37066;BME280;22981;43.080;25.550;2023-12-20T12:45:49;98853.55;;;15.68;49.32
37066;BME280;22981;43.080;25.550;2023-12-20T12:48:16;98849.80;;;15.85;48.89
37066;BME280;22981;43.080;25.550;2023-12-20T12:50:46;98846.55;;;15.90;48.16
37066;BME280;22981;43.080;25.550;2023-12-20T12:53:13;98852.20;;;15.84;48.16
37066;BME280;22981;43.080;25.550;2023-12-20T12:55:41;98849.23;;;15.80;47.95
37066;BME280;22981;43.080;25.550;2023-12-20T12:58:09;98849.75;;;15.67;47.86